• Join FlightAware (Why Join?)
  • Login
  • US Flag 
02:45PM EDT


 

Airport Tracker/Info


-or-


 

Live Flight TrackerFlight Track Log ✈ ACA831 ✈ 16-Aug-2013 ✈ LSGG / GVA - CYUL

Flight Track Log - Related Links

Times and Time Zones

All times are in EDT time to prevent confusion due to time zone crossing. See the ACA831 flight status page for this flight to view local times or setup timezone preferences in your user account.

Time Position Orientation Groundspeed Altitude Reporting Facility
EDT Latitude Longitude Course Direction KTS MPH feet Rate Location/Type
06:31AM 46.2430 6.1170 234° Southwest 125 144  Level FlightAware
06:31AM 46.2320 6.1000 227° Southwest 173 199 1,500 3,720 Climbing FlightAware
06:31AM 46.2250 6.0890 227° Southwest 172 198 2,200 2,700 Climbing FlightAware
06:31AM 46.2120 6.0710 224° Southwest 183 211 3,100 2,520 Climbing FlightAware
06:32AM 46.2030 6.0580 225° Southwest 186 214 3,700 2,400 Climbing FlightAware
06:32AM 46.1910 6.0400 226° Southwest 188 216 4,500 2,460 Climbing FlightAware
06:32AM 46.1790 6.0230 224° Southwest 188 216 5,400 2,400 Climbing FlightAware
06:33AM 46.1600 5.9940 227° Southwest 192 221 6,600 2,160 Climbing FlightAware
06:33AM 46.1480 5.9760 226° Southwest 199 229 7,200 1,680 Climbing FlightAware
06:33AM 46.1440 5.9620 248° West 217 250 7,400 1,200 Climbing FlightAware
06:33AM 46.1430 5.9540 260° West 225 259 7,500 1,500 Climbing FlightAware
06:34AM 46.1590 5.9120 299° West 257 296 8,300 1,500 Climbing FlightAware
06:34AM 46.1630 5.9090 333° Northwest 260 299 8,400 1,620 Climbing FlightAware
06:34AM 46.1720 5.9040 339° North 272 313 8,600 2,220 Climbing FlightAware
06:35AM 46.1970 5.8930 343° North 291 335 9,400 2,340 Climbing FlightAware
06:35AM 46.2440 5.8660 338° Northwest 312 359 10,800 1,740 Climbing FlightAware
06:36AM 46.2980 5.8330 337° Northwest 358 412 11,600 1,440 Climbing FlightAware
06:36AM 46.3550 5.7950 335° Northwest 394 453 12,600 2,220 Climbing FlightAware
06:37AM 46.4210 5.7520 336° Northwest 407 468 14,400 2,700 Climbing FlightAware
06:38AM 46.4850 5.7110 336° Northwest 417 480 16,000 2,460 Climbing FlightAware
06:38AM 46.5490 5.6700 336° Northwest 429 494 17,400 2,280 Climbing FlightAware
06:39AM 46.6070 5.6330 336° Northwest 438 504 18,600 2,160 Climbing FlightAware
06:39AM 46.6730 5.5880 335° Northwest 447 514 19,900 2,280 Climbing FlightAware
06:40AM 46.7410 5.5340 331° Northwest 452 520 21,400 2,340 Climbing FlightAware
06:40AM 46.7980 5.4870 331° Northwest 453 521 22,600 2,100 Climbing FlightAware
06:41AM 46.8610 5.4240 326° Northwest 458 527 23,800 1,860 Climbing FlightAware
06:41AM 46.8900 5.3650 306° West 456 525 24,500 1,680 Climbing FlightAware
06:42AM 46.9260 5.2530 295° West 465 535 25,600 1,680 Climbing FlightAware
06:43AM 46.9810 5.1690 314° West 481 554 26,700 2,040 Climbing FlightAware
06:43AM 47.0400 5.0900 318° Northwest 476 548 28,100 2,160 Climbing FlightAware
06:44AM 47.0870 5.0260 317° Northwest 475 547 29,100 1,800 Climbing FlightAware
06:44AM 47.1500 4.9440 318° Northwest 474 545 30,200 1,800 Climbing FlightAware
06:45AM 47.2060 4.8690 318° Northwest 472 543 31,300 1,560 Climbing FlightAware
06:46AM 47.2610 4.7950 318° Northwest 471 542 32,000 600 Climbing FlightAware
06:46AM 47.3150 4.7230 318° Northwest 469 540 32,000  Level FlightAware
06:47AM 47.3780 4.6380 318° Northwest 467 537 32,000  Level FlightAware
06:47AM 47.4290 4.5690 318° Northwest 467 537 32,000  Level FlightAware
06:48AM 47.4810 4.4980 317° Northwest 469 540 32,000  Level FlightAware
06:48AM 47.5350 4.4240 317° Northwest 470 541 32,000  Level FlightAware
06:49AM 47.6090 4.3260 318° Northwest 470 541 32,000  Level FlightAware
06:50AM 47.6680 4.2580 322° Northwest 470 541 32,000  Level FlightAware
06:50AM 47.7320 4.1910 325° Northwest 469 540 32,000  Level FlightAware
06:51AM 47.7870 4.1340 325° Northwest 468 539 32,000  Level FlightAware
06:52AM 47.8600 4.0590 325° Northwest 468 539 32,000  Level FlightAware
06:52AM 47.9100 4.0090 326° Northwest 467 537 32,000  Level FlightAware
06:53AM 47.9760 3.9400 325° Northwest 467 537 32,000  Level FlightAware
06:53AM 48.0320 3.8820 325° Northwest 467 537 32,000  Level FlightAware
06:54AM 48.1060 3.8040 325° Northwest 468 539 32,000  Level FlightAware
06:54AM 48.1620 3.7450 325° Northwest 468 539 32,000  Level FlightAware
06:55AM 48.2250 3.6790 325° Northwest 469 540 32,000  Level FlightAware
06:56AM 48.2860 3.6140 325° Northwest 469 540 32,000  Level FlightAware
06:56AM 48.3470 3.5500 325° Northwest 462 532 32,000  Level FlightAware
06:57AM 48.4150 3.5020 335° Northwest 475 547 32,000  Level FlightAware
06:57AM 48.4880 3.4520 336° Northwest 467 537 32,000  Level FlightAware
06:58AM 48.5570 3.4020 334° Northwest 467 537 32,000  Level FlightAware
06:59AM 48.6260 3.3500 334° Northwest 467 537 32,000  Level FlightAware
06:59AM 48.6930 3.2990 333° Northwest 472 543 32,000  Level FlightAware
07:00AM 48.7590 3.2480 333° Northwest 472 543 32,000  Level FlightAware
07:00AM 48.8380 3.1880 333° Northwest 472 543 32,000  Level FlightAware
07:01AM 48.9080 3.1350 334° Northwest 465 535 32,000  Level FlightAware
07:02AM 48.9770 3.0840 334° Northwest 465 535 32,000  Level FlightAware
07:02AM 49.0580 3.0250 334° Northwest 464 534 32,000  Level FlightAware
07:03AM 49.1080 2.9880 334° Northwest 464 534 32,000  Level FlightAware
07:03AM 49.1830 2.9330 334° Northwest 464 534 32,000  Level FlightAware
07:04AM 49.2510 2.8820 334° Northwest 464 534 32,000  Level FlightAware
07:05AM 49.3240 2.8280 334° Northwest 463 533 32,000  Level FlightAware
07:05AM 49.3820 2.7840 334° Northwest 464 534 32,000  Level FlightAware
07:06AM 49.4560 2.7290 334° Northwest 470 541 32,000  Level FlightAware
07:06AM 49.5270 2.6750 334° Northwest 470 541 32,000  Level FlightAware
07:07AM 49.5970 2.6220 334° Northwest 470 541 32,000  Level FlightAware
07:07AM 49.6740 2.5640 334° Northwest 472 543 32,000  Level FlightAware
07:08AM 49.7440 2.5110 334° Northwest 474 545 32,000  Level FlightAware
07:09AM 49.8050 2.4650 334° Northwest 474 545 32,000  Level FlightAware
07:09AM 49.8790 2.4080 334° Northwest 474 545 32,000  Level FlightAware
07:10AM 49.9500 2.3540 334° Northwest 474 545 32,000  Level FlightAware
07:10AM 50.0100 2.3070 333° Northwest 474 545 32,000  Level FlightAware
07:11AM 50.0730 2.2590 334° Northwest 474 545 32,000  Level FlightAware
07:12AM 50.1542 2.1963 334° Northwest 474 545 32,000  Level FlightAware UK
07:12AM 50.1580 2.1930 334° Northwest 474 545 32,000  Level FlightAware
07:12AM 50.2350 2.1330 334° Northwest 474 545 32,000  Level FlightAware
07:13AM 50.3020 2.0740 331° Northwest 473 544 32,000  Level FlightAware
07:13AM 50.3530 2.0100 331° Northwest 467 537 32,000  Level FlightAware
07:13AM 50.3643 1.9940 331° Northwest 474 545 32,000  Level FlightAware UK
07:14AM 50.4140 1.9220 317° Northwest 467 537 32,000  Level FlightAware
07:15AM 50.4694 1.8435 317° Northwest 474 545 32,000  Level FlightAware UK
07:15AM 50.4760 1.8360 317° Northwest 469 540 32,000  Level FlightAware
07:15AM 50.5310 1.7660 321° Northwest 470 541 32,000  Level FlightAware
07:16AM 50.5900 1.6910 321° Northwest 471 542 32,000  Level FlightAware
07:16AM 50.6470 1.6210 322° Northwest 472 543 32,000  Level FlightAware
07:17AM 50.7050 1.5490 322° Northwest 472 543 32,000  Level FlightAware
07:17AM 50.7670 1.4720 322° Northwest 473 544 32,000  Level FlightAware
07:18AM 50.8290 1.3950 322° Northwest 473 544 32,000  Level FlightAware
07:19AM 50.8900 1.3180 321° Northwest 473 544 32,000  Level FlightAware
07:19AM 50.9505 1.2417 321° Northwest 474 545 32,000  Level FlightAware UK
07:19AM 50.9460 1.2480 321° Northwest 474 545 32,000  Level FlightAware
07:20AM 51.0119 1.1633 321° Northwest 476 548 32,000  Level FlightAware UK
07:20AM 51.0170 1.1570 321° Northwest 474 545 32,000  Level FlightAware
07:20AM 51.0496 1.1158 322° Northwest 475 547 32,000  Level FlightAware ADS-B
07:21AM 51.1016 1.0496 321° Northwest 475 547 32,000  Level FlightAware ADS-B
07:21AM 51.1547 0.9816 321° Northwest 475 547 32,000  Level FlightAware ADS-B
07:22AM 51.2084 0.9128 321° Northwest 475 547 32,000  Level FlightAware ADS-B
07:22AM 51.2600 0.8464 321° Northwest 476 548 32,000  Level FlightAware ADS-B
07:23AM 51.3114 0.7801 321° Northwest 475 547 32,000  Level FlightAware ADS-B
07:23AM 51.3622 0.7143 321° Northwest 474 545 32,000  Level FlightAware ADS-B
07:24AM 51.4136 0.6476 321° Northwest 475 547 32,000  Level FlightAware ADS-B
07:24AM 51.4653 0.5803 321° Northwest 475 547 32,000  Level FlightAware ADS-B
07:25AM 51.5193 0.5098 321° Northwest 475 547 32,000  Level FlightAware ADS-B
07:25AM 51.5708 0.4424 321° Northwest 475 547 32,000  Level FlightAware ADS-B
07:26AM 51.6224 0.3745 321° Northwest 475 547 32,000  Level FlightAware ADS-B
07:26AM 51.6739 0.3067 321° Northwest 476 548 32,000  Level FlightAware ADS-B
07:27AM 51.7260 0.2379 321° Northwest 475 547 32,000  Level FlightAware ADS-B
07:27AM 51.7775 0.1695 321° Northwest 475 547 32,000  Level FlightAware ADS-B
07:28AM 51.8305 0.0992 321° Northwest 475 547 32,000  Level FlightAware ADS-B
07:28AM 51.8811 0.0315 320° Northwest 475 547 32,000  Level FlightAware ADS-B
07:29AM 51.9337 -0.0390 320° Northwest 474 545 32,000  Level FlightAware ADS-B
07:29AM 51.9871 -0.1108 320° Northwest 474 545 32,000  Level FlightAware ADS-B
07:30AM 52.0387 -0.1804 320° Northwest 474 545 32,000  Level FlightAware ADS-B
07:30AM 52.0922 -0.2524 320° Northwest 473 544 32,000  Level FlightAware ADS-B
07:31AM 52.1423 -0.3203 320° Northwest 473 544 32,000  Level FlightAware ADS-B
07:31AM 52.1965 -0.3943 320° Northwest 472 543 32,000  Level FlightAware ADS-B
07:32AM 52.2474 -0.4638 320° Northwest 471 542 32,000  Level FlightAware ADS-B
07:32AM 52.2975 -0.5325 320° Northwest 471 542 32,000  Level FlightAware ADS-B
07:33AM 52.3502 -0.6051 320° Northwest 471 542 32,000  Level FlightAware ADS-B
07:34AM 52.4144 -0.6937 320° Northwest 470 541 32,000  Level FlightAware ADS-B
07:34AM 52.4667 -0.7635 321° Northwest 472 543 32,000  Level FlightAware ADS-B
07:35AM 52.5196 -0.8325 322° Northwest 471 542 32,000  Level FlightAware ADS-B
07:35AM 52.5713 -0.8997 322° Northwest 471 542 32,000  Level FlightAware ADS-B
07:36AM 52.6249 -0.9692 322° Northwest 471 542 32,000  Level FlightAware ADS-B
07:36AM 52.6943 -1.0593 322° Northwest 472 543 32,000  Level FlightAware UK
07:36AM 52.6960 -1.0610 322° Northwest 471 542 32,000  Level FlightAware
07:37AM 52.7355 -1.1123 322° Northwest 471 542 32,000  Level FlightAware ADS-B
07:37AM 52.7980 -1.1929 322° Northwest 471 542 32,000  Level FlightAware ADS-B
07:38AM 52.8770 -1.2960 322° Northwest 471 542 32,000  Level FlightAware
07:39AM 52.9380 -1.3750 322° Northwest 471 542 32,000  Level FlightAware
07:39AM 53.0010 -1.4570 322° Northwest 473 544 32,000  Level FlightAware
07:40AM 53.0570 -1.5280 323° Northwest 473 544 32,000  Level FlightAware
07:41AM 53.1130 -1.6010 322° Northwest 473 544 32,000  Level FlightAware
07:41AM 53.1700 -1.6770 321° Northwest 474 545 32,000  Level FlightAware
07:42AM 53.2283 -1.7535 321° Northwest 472 543 32,000  Level FlightAware UK
07:42AM 53.2380 -1.7670 321° Northwest 468 539 32,000  Level FlightAware
07:42AM 53.2850 -1.8490 314° West 453 521 32,000  Level FlightAware
07:43AM 53.3320 -1.9570 306° West 453 521 32,000  Level FlightAware
07:43AM 53.3765 -2.0616 306° West 451 519 32,000  Level FlightAware ADS-B
07:44AM 53.4180 -2.1610 305° West 450 518 32,000  Level FlightAware
07:45AM 53.4530 -2.2590 301° West 440 506 32,000  Level FlightAware
07:45AM 53.4770 -2.3630 291° West 432 497 32,000 120 Level FlightAware
07:46AM 53.4910 -2.4780 282° West 428 493 32,200 900 Climbing FlightAware
07:46AM 53.5021 -2.5961 279° West 428 493 33,100 1,380 Climbing FlightAware ADS-B
07:47AM 53.5129 -2.7167 279° West 428 493 33,900 720 Climbing FlightAware ADS-B
07:48AM 53.5233 -2.8357 278° West 422 486 34,000 60 Climbing FlightAware ADS-B
07:48AM 53.5330 -2.9420 279° West 426 490 34,000  Level FlightAware
07:49AM 53.5460 -3.0520 281° West 432 497 34,000  Level FlightAware
07:49AM 53.5610 -3.1730 282° West 435 501 34,000  Level FlightAware
07:50AM 53.5740 -3.2850 281° West 434 499 34,000  Level FlightAware
07:50AM 53.5870 -3.4030 281° West 432 497 34,000  Level FlightAware
07:51AM 53.6000 -3.5150 281° West 432 497 34,000  Level FlightAware
07:52AM 53.6130 -3.6430 280° West 431 496 34,000  Level FlightAware
07:52AM 53.6190 -3.7500 275° West 430 495 34,000  Level FlightAware
07:53AM 53.6260 -3.8950 275° West 431 496 34,000  Level FlightAware
07:53AM 53.6301 -4.0043 275° West 472 543 34,000  Level FlightAware UK
07:54AM 53.6300 -4.0160 275° West 431 496 34,000  Level FlightAware
07:54AM 53.6340 -4.1170 274° West 430 495 34,000  Level FlightAware
07:55AM 53.6390 -4.2390 274° West 430 495 34,000  Level FlightAware
07:55AM 53.6430 -4.3560 273° West 431 496 34,000  Level FlightAware
07:56AM 53.6470 -4.4600 274° West 432 497 34,000  Level FlightAware
07:56AM 53.6518 -4.5858 274° West 474 545 34,000  Level FlightAware UK
07:56AM 53.6520 -4.5920 274° West 432 497 34,000  Level FlightAware
07:57AM 53.6562 -4.7068 274° West 476 548 34,000  Level FlightAware UK
07:57AM 53.6560 -4.7130 274° West 432 497 34,000  Level FlightAware
07:58AM 53.6600 -4.8180 274° West 432 497 34,000  Level FlightAware
07:58AM 53.6632 -4.9279 274° West 472 543 34,000  Level FlightAware UK
07:58AM 53.6640 -4.9540 274° West 433 498 34,000  Level FlightAware
07:59AM 53.6670 -5.0600 273° West 433 498 34,000  Level FlightAware
07:59AM 53.6710 -5.1830 273° West 432 497 34,000  Level FlightAware
08:00AM 53.6740 -5.3000 273° West 432 497 34,000  Level FlightAware
08:01AM 53.6780 -5.4180 273° West 432 497 34,000  Level FlightAware
08:01AM 53.6860 -5.5220 277° West 433 498 34,000  Level FlightAware
08:02AM 53.7080 -5.6460 287° West 432 497 34,000  Level FlightAware
08:02AM 53.7280 -5.7520 287° West 433 498 34,000  Level FlightAware
08:02AM 53.7303 -5.7633 287° West 474 545 34,000  Level FlightAware UK
08:03AM 53.7490 -5.8596 287° West 474 545 34,000  Level FlightAware UK
08:03AM 53.7500 -5.8670 287° West 434 499 34,000  Level FlightAware
08:03AM 53.7700 -5.9710 288° West 434 499 34,000  Level FlightAware
08:04AM 53.7930 -6.0940 288° West 434 499 34,000  Level FlightAware
08:05AM 53.8140 -6.2070 288° West 434 499 34,000  Level FlightAware
08:05AM 53.8360 -6.3230 288° West 434 499 34,000  Level FlightAware
08:06AM 53.8550 -6.4280 287° West 434 499 34,000  Level FlightAware
08:06AM 53.8770 -6.5510 287° West 431 496 34,000  Level FlightAware
08:07AM 53.8930 -6.6350 288° West 430 495 34,000  Level FlightAware
08:07AM 53.9160 -6.7610 287° West 431 496 34,000  Level FlightAware
08:08AM 53.9350 -6.8670 287° West 430 495 34,000  Level FlightAware
08:08AM 53.9382 -6.8851 287° West 478 550 34,000  Level FlightAware UK
08:09AM 53.9590 -7.0030 287° West 428 493 34,000  Level FlightAware
08:09AM 53.9793 -7.1162 287° West 478 550 34,000  Level FlightAware UK
08:09AM 53.9810 -7.1280 287° West 426 490 34,000  Level FlightAware
08:10AM 54.0020 -7.2440 287° West 424 488 34,000  Level FlightAware
08:11AM 54.0230 -7.3640 287° West 422 486 34,000  Level FlightAware
08:11AM 54.0330 -7.4210 287° West 420 483 34,000  Level FlightAware
08:12AM 54.0600 -7.5790 286° West 416 479 34,000  Level FlightAware
08:12AM 54.0770 -7.6780 286° West 413 475 34,000  Level FlightAware
08:13AM 54.0960 -7.7910 286° West 409 471 34,000  Level FlightAware
08:13AM 54.1130 -7.8890 286° West 405 466 34,000  Level FlightAware
08:13AM 54.1163 -7.9072 286° West 480 552 34,000  Level FlightAware UK
08:14AM 54.1318 -7.9979 286° West 476 548 34,000  Level FlightAware UK
08:14AM 54.1330 -8.0060 286° West 398 458 34,000  Level FlightAware
08:15AM 54.1490 -8.1040 286° West 397 457 34,000  Level FlightAware
08:15AM 54.1720 -8.2420 286° West 393 452 34,000  Level FlightAware
08:16AM 54.1870 -8.3330 286° West 390 449 34,000  Level FlightAware
08:16AM 54.2030 -8.4280 286° West 387 445 34,000  Level FlightAware
08:16AM 54.2059 -8.4445 286° West 472 543 34,000  Level FlightAware UK
08:17AM 54.2203 -8.5320 286° West 472 543 34,000  Level FlightAware UK
08:17AM 54.2200 -8.5340 286° West 383 441 34,000  Level FlightAware
08:18AM 54.2373 -8.6361 286° West 468 539 34,000  Level FlightAware UK
08:18AM 54.2360 -8.6320 286° West 380 437 34,000  Level FlightAware
08:18AM 54.2540 -8.7430 286° West 381 438 34,000  Level FlightAware
08:19AM 54.2690 -8.8350 286° West 379 436 34,000  Level FlightAware
08:19AM 54.2860 -8.9410 285° West 380 437 34,000  Level FlightAware
08:20AM 54.3040 -9.0560 285° West 379 436 34,000  Level FlightAware
08:20AM 54.3180 -9.1420 286° West 380 437 34,000  Level FlightAware
08:21AM 54.3340 -9.2440 285° West 383 441 34,000  Level FlightAware
08:22AM 54.3520 -9.3630 285° West 384 442 34,000  Level FlightAware
08:22AM 54.3660 -9.4490 286° West 387 445 34,000  Level FlightAware
08:23AM 54.3820 -9.5540 285° West 388 447 34,000  Level FlightAware
08:23AM 54.4000 -9.6720 285° West 390 449 34,000  Level FlightAware
08:24AM 54.4140 -9.7630 285° West 391 450 34,000  Level FlightAware
08:25AM 54.4320 -9.8820 285° West 394 453 34,000  Level FlightAware
08:25AM 54.4460 -9.9780 284° West 395 455 34,000  Level FlightAware
08:26AM 54.4620 -10.0820 285° West 397 457 34,000  Level FlightAware
08:26AM 54.4880 -10.1770 295° West 386 444 34,000  Level FlightAware
08:27AM 54.5260 -10.2900 300° West 387 445 34,000  Level FlightAware
08:28AM 54.5620 -10.3930 301° West 388 447 34,000  Level FlightAware
08:28AM 54.5940 -10.4850 301° West 388 447 34,000  Level FlightAware
08:29AM 54.6260 -10.5810 300° West 390 449 34,000  Level FlightAware
08:29AM 54.6580 -10.6740 301° West 390 449 34,000  Level FlightAware
08:30AM 54.6910 -10.7710 301° West 393 452 34,000  Level FlightAware
08:31AM 54.7230 -10.8680 300° West 393 452 34,000  Level FlightAware
08:31AM 54.7550 -10.9620 301° West 390 449 34,000  Level FlightAware
08:32AM 54.7910 -11.0680 301° West 387 445 34,000  Level FlightAware
08:32AM 54.8220 -11.1630 300° West 384 442 34,000  Level FlightAware
08:33AM 54.8530 -11.2570 300° West 378 435 34,000  Level FlightAware
08:34AM 54.8830 -11.3480 300° West 378 435 34,000  Level FlightAware
08:34AM 54.9150 -11.4440 300° West 378 435 34,000  Level FlightAware
08:35AM 54.9490 -11.5490 299° West 377 434 34,000  Level FlightAware
08:35AM 54.9760 -11.6300 300° West 378 435 34,000  Level FlightAware
08:36AM 55.0040 -11.7160 300° West 378 435 34,000  Level FlightAware
08:36AM 55.0310 -11.8010 299° West 379 436 34,000  Level FlightAware
08:37AM 55.0660 -11.9100 299° West 380 437 34,000  Level FlightAware
08:38AM 55.0970 -12.0040 300° West 381 438 34,000  Level FlightAware
08:38AM 55.1260 -12.0970 299° West 380 437 34,000  Level FlightAware
08:39AM 55.1550 -12.1880 299° West 380 437 34,000  Level FlightAware
08:39AM 55.1870 -12.2880 299° West 381 438 34,000  Level FlightAware
08:40AM 55.2180 -12.3850 299° West 381 438 34,000  Level FlightAware
08:41AM 55.2460 -12.4750 299° West 381 438 34,000  Level FlightAware
08:41AM 55.2780 -12.5750 299° West 380 437 34,000  Level FlightAware
08:42AM 55.3080 -12.6700 299° West 383 441 34,000  Level FlightAware
08:42AM 55.3410 -12.7760 299° West 378 435 34,000  Level FlightAware
08:43AM 55.3650 -12.8560 298° West 380 437 34,000  Level FlightAware
08:44AM 55.3960 -12.9560 299° West 379 436 34,000  Level FlightAware
08:44AM 55.4280 -13.0590 299° West 376 433 34,000  Level FlightAware
08:45AM 55.4560 -13.1510 298° West 375 432 34,000  Level FlightAware
08:45AM 55.4830 -13.2410 298° West 374 430 34,000  Level FlightAware
08:46AM 55.5080 -13.3240 298° West 374 430 34,000  Level FlightAware
08:47AM 55.5340 -13.4090 298° West 374 430 34,000  Level FlightAware
08:47AM 55.5590 -13.4910 298° West 374 430 34,000  Level FlightAware
08:48AM 55.5830 -13.5740 297° West 374 430 34,000  Level FlightAware
08:48AM 55.6080 -13.6570 298° West 374 430 34,000  Level FlightAware
08:49AM 55.6330 -13.7390 298° West 374 430 34,000  Level FlightAware
08:50AM 55.6580 -13.8220 298° West 374 430 34,000  Level FlightAware
08:50AM 55.6830 -13.9080 297° West 374 430 34,000  Level FlightAware
08:51AM 55.7080 -13.9910 298° West 374 430 34,000  Level FlightAware
08:52AM 55.7340 -14.0760 299° West 374 430 34,000  Level FlightAware
08:52AM 55.7590 -14.1590 298° West 374 430 34,000  Level FlightAware
08:53AM 55.7840 -14.2440 298° West 374 430 34,000  Level FlightAware
08:53AM 55.8090 -14.3270 298° West 374 430 34,000  Level FlightAware
08:54AM 55.8340 -14.4110 298° West 374 430 34,000  Level FlightAware
08:55AM 55.8590 -14.4940 298° West 374 430 34,000  Level FlightAware
08:57AM 55.8966 -14.8922 280° West  Level Estimated
08:58AM 55.9151 -15.0932 279° West  Level Estimated
08:59AM 55.9332 -15.2944 279° West  Level Estimated
09:00AM 55.9511 -15.4958 279° West  Level Estimated
09:01AM 55.9686 -15.6974 279° West  Level Estimated
09:02AM 55.9857 -15.8992 279° West  Level Estimated
09:03AM 56.0025 -16.1012 279° West  Level Estimated
09:04AM 56.0190 -16.3033 278° West  Level Estimated
09:05AM 56.0352 -16.5056 278° West  Level Estimated
09:06AM 56.0510 -16.7081 278° West  Level Estimated
09:07AM 56.0666 -16.9107 278° West  Level Estimated
09:08AM 56.0822 -17.1201 278° West  Level Estimated
09:09AM 56.0975 -17.3296 278° West  Level Estimated
09:10AM 56.1125 -17.5392 277° West  Level Estimated
09:11AM 56.1271 -17.7491 277° West  Level Estimated
09:12AM 56.1413 -17.9590 277° West  Level Estimated
09:13AM 56.1552 -18.1692 277° West  Level Estimated
09:14AM 56.1687 -18.3794 277° West  Level Estimated
09:15AM 56.1819 -18.5899 277° West  Level Estimated
09:16AM 56.1947 -18.8004 276° West  Level Estimated
09:17AM 56.2072 -19.0112 276° West  Level Estimated
09:18AM 56.2192 -19.2220 276° West  Level Estimated
09:19AM 56.2310 -19.4330 276° West  Level Estimated
09:20AM 56.2424 -19.6441 276° West  Level Estimated
09:21AM 56.2534 -19.8553 275° West  Level Estimated
09:22AM 56.2640 -20.0667 275° West  Level Estimated
09:23AM 56.2743 -20.2781 275° West  Level Estimated
09:24AM 56.2843 -20.4897 275° West  Level Estimated
09:25AM 56.2939 -20.7014 275° West  Level Estimated
09:26AM 56.3031 -20.9132 275° West  Level Estimated
09:27AM 56.3119 -21.1250 274° West  Level Estimated
09:27AM 57.0000 -20.0000 295° West 424 488 34,000  Level ETMS Enhanced Traffic Management System
09:28AM 56.3204 -21.3370 274° West  Level Estimated
09:29AM 56.3285 -21.5491 274° West  Level Estimated
09:30AM 56.3364 -21.7642 274° West  Level Estimated
09:31AM 56.3439 -21.9795 274° West  Level Estimated
09:32AM 56.3511 -22.1948 274° West  Level Estimated
09:33AM 57.5264 -22.1911 293° West 424 488 34,000  Level FlightAware Transoceanic
09:34AM 57.5723 -22.3934 293° West 424 488 34,000  Level FlightAware Transoceanic
09:35AM 57.6180 -22.5961 293° West 424 488 34,000  Level FlightAware Transoceanic
09:36AM 57.6632 -22.7994 293° West 424 488 34,000  Level FlightAware Transoceanic
09:37AM 57.7082 -23.0032 292° West 424 488 34,000  Level FlightAware Transoceanic
09:38AM 57.7529 -23.2075 292° West 424 488 34,000  Level FlightAware Transoceanic
09:39AM 57.7972 -23.4123 292° West 424 488 34,000  Level FlightAware Transoceanic
09:40AM 57.8411 -23.6177 292° West 424 488 34,000  Level FlightAware Transoceanic
09:41AM 57.8848 -23.8235 292° West 424 488 34,000  Level FlightAware Transoceanic
09:42AM 57.9281 -24.0298 291° West 424 488 34,000  Level FlightAware Transoceanic
09:43AM 57.9711 -24.2366 291° West 424 488 34,000  Level FlightAware Transoceanic
09:44AM 58.0137 -24.4439 291° West 424 488 34,000  Level FlightAware Transoceanic
09:45AM 58.0560 -24.6517 291° West 424 488 34,000  Level FlightAware Transoceanic
09:46AM 58.0980 -24.8600 291° West 424 488 34,000  Level FlightAware Transoceanic
09:47AM 58.1396 -25.0688 291° West 424 488 34,000  Level FlightAware Transoceanic
09:48AM 58.1809 -25.2780 290° West 424 488 34,000  Level FlightAware Transoceanic
09:49AM 58.2219 -25.4877 290° West 424 488 34,000  Level FlightAware Transoceanic
09:50AM 58.2625 -25.6980 290° West 424 488 34,000  Level FlightAware Transoceanic
09:51AM 58.3027 -25.9087 290° West 424 488 34,000  Level FlightAware Transoceanic
09:52AM 58.3426 -26.1199 290° West 424 488 34,000  Level FlightAware Transoceanic
09:53AM 58.3822 -26.3315 290° West 424 488 34,000  Level FlightAware Transoceanic
09:54AM 58.4214 -26.5437 289° West 424 488 34,000  Level FlightAware Transoceanic
09:55AM 58.4602 -26.7563 289° West 424 488 34,000  Level FlightAware Transoceanic
09:56AM 58.4987 -26.9694 289° West 424 488 34,000  Level FlightAware Transoceanic
09:57AM 58.5369 -27.1829 289° West 424 488 34,000  Level FlightAware Transoceanic
09:58AM 58.5747 -27.3969 289° West 424 488 34,000  Level FlightAware Transoceanic
09:59AM 58.6121 -27.6113 288° West 424 488 34,000  Level FlightAware Transoceanic
10:00AM 58.6492 -27.8263 288° West 424 488 34,000  Level FlightAware Transoceanic
10:01AM 58.6859 -28.0417 288° West 424 488 34,000  Level FlightAware Transoceanic
10:02AM 58.7223 -28.2575 288° West 424 488 34,000  Level FlightAware Transoceanic
10:03AM 58.7583 -28.4737 288° West 424 488 34,000  Level FlightAware Transoceanic
10:04AM 58.7939 -28.6905 288° West 424 488 34,000  Level FlightAware Transoceanic
10:05AM 58.8292 -28.9076 287° West 424 488 34,000  Level FlightAware Transoceanic
10:06AM 58.8641 -29.1252 287° West 424 488 34,000  Level FlightAware Transoceanic
10:07AM 58.8986 -29.3433 287° West 424 488 34,000  Level FlightAware Transoceanic
10:08AM 58.9328 -29.5618 287° West 424 488 34,000  Level FlightAware Transoceanic
10:09AM 58.9666 -29.7807 287° West 424 488 34,000  Level FlightAware Transoceanic
10:10AM 59.0005 -30.0031 287° West  Level FlightAware Approximate
10:11AM 59.0003 -30.0065 274° West  Level FlightAware Approximate
10:12AM 59.0090 -30.2379 274° West  Level FlightAware Approximate
10:13AM 59.0173 -30.4695 274° West  Level FlightAware Approximate
10:14AM 59.0252 -30.7012 274° West  Level FlightAware Approximate
10:15AM 59.0326 -30.9331 274° West  Level FlightAware Approximate
10:15AM 59.0000 -30.0000 274° West 451 519 34,000  Level ETMS Enhanced Traffic Management System
10:16AM 59.0397 -31.1650 273° West  Level FlightAware Approximate
10:17AM 59.0464 -31.3965 273° West  Level FlightAware Approximate
10:18AM 59.0526 -31.6280 273° West  Level FlightAware Approximate
10:19AM 59.0584 -31.8597 273° West  Level FlightAware Approximate
10:20AM 59.0638 -32.0915 273° West  Level FlightAware Approximate
10:21AM 59.0710 -32.4355 272° West 451 519 34,000  Level FlightAware Transoceanic
10:22AM 59.0756 -32.6795 272° West 451 519 34,000  Level FlightAware Transoceanic
10:23AM 59.0798 -32.9236 272° West 451 519 34,000  Level FlightAware Transoceanic
10:24AM 59.0834 -33.1678 272° West 451 519 34,000  Level FlightAware Transoceanic
10:25AM 59.0867 -33.4120 271° West 451 519 34,000  Level FlightAware Transoceanic
10:26AM 59.0894 -33.6562 271° West 451 519 34,000  Level FlightAware Transoceanic
10:27AM 59.0917 -33.9005 271° West 451 519 34,000  Level FlightAware Transoceanic
10:28AM 59.0935 -34.1448 271° West 451 519 34,000  Level FlightAware Transoceanic
10:29AM 59.0949 -34.3891 271° West 451 519 34,000  Level FlightAware Transoceanic
10:30AM 59.0958 -34.6335 270° West 451 519 34,000  Level FlightAware Transoceanic
10:31AM 59.0963 -34.8778 270° West 451 519 34,000  Level FlightAware Transoceanic
10:32AM 59.0963 -35.1222 270° West 451 519 34,000  Level FlightAware Transoceanic
10:33AM 59.0958 -35.3665 270° West 451 519 34,000  Level FlightAware Transoceanic
10:34AM 59.0949 -35.6109 269° West 451 519 34,000  Level FlightAware Transoceanic
10:35AM 59.0935 -35.8552 269° West 451 519 34,000  Level FlightAware Transoceanic
10:36AM 59.0917 -36.0995 269° West 451 519 34,000  Level FlightAware Transoceanic
10:36AM 59.0833 -35.8167 268° West 450 518 34,000  Level Gander Center
10:37AM 59.0894 -36.3438 269° West 451 519 34,000  Level FlightAware Transoceanic
10:37AM 59.1000 -36.0500 278° West 450 518 34,000  Level Gander Center
10:38AM 59.0867 -36.5880 269° West 451 519 34,000  Level FlightAware Transoceanic
10:38AM 59.1000 -36.3000 270° West 450 518 34,000  Level Gander Center
10:39AM 59.0834 -36.8322 268° West 451 519 34,000  Level FlightAware Transoceanic
10:39AM 59.0833 -36.5333 262° West 450 518 34,000  Level Gander Center
10:40AM 59.0798 -37.0764 268° West 451 519 34,000  Level FlightAware Transoceanic
10:41AM 59.0756 -37.3205 268° West 451 519 34,000  Level FlightAware Transoceanic
10:41AM 59.0833 -37.0167 270° West 450 518 34,000  Level Gander Center
10:42AM 59.0833 -37.2500 270° West 450 518 34,000  Level Gander Center
10:43AM 59.0833 -37.5000 270° West 450 518 34,000  Level Gander Center
10:44AM 59.0667 -37.7500 263° West 450 518 34,000  Level Gander Center
10:45AM 59.0667 -37.9833 270° West 450 518 34,000  Level Gander Center
10:46AM 59.0667 -38.2167 270° West 450 518 34,000  Level Gander Center
10:47AM 59.0500 -38.4333 262° West 450 518 34,000  Level Gander Center
10:48AM 59.0500 -38.6667 270° West 450 518 34,000  Level Gander Center
10:49AM 59.0333 -38.9167 263° West 450 518 34,000  Level Gander Center
10:50AM 59.0333 -39.1500 270° West 450 518 34,000  Level Gander Center
10:51AM 59.0333 -39.3833 270° West 440 506 34,000  Level Gander Center
10:52AM 59.0167 -39.6333 263° West 440 506 34,000  Level Gander Center
10:53AM 59.0000 -39.8833 263° West 440 506 34,000  Level Gander Center
10:54AM 58.9667 -40.1000 253° West 450 518 34,000  Level Gander Center
10:55AM 58.9333 -40.3167 253° West 450 518 34,000  Level Gander Center
10:56AM 58.9000 -40.5333 253° West 450 518 34,000  Level Gander Center
10:57AM 59.0000 -40.0000 254° West 452 520 34,000  Level ETMS Enhanced Traffic Management System
10:57AM 58.8833 -40.7833 263° West 450 518 34,000  Level Gander Center
10:58AM 58.8333 -41.0167 254° West 450 518 34,000  Level Gander Center
10:59AM 58.8000 -41.2333 254° West 450 518 34,000  Level Gander Center
11:00AM 58.7500 -41.4500 246° West 450 518 34,000  Level Gander Center
11:01AM 58.7167 -41.6833 255° West 450 518 34,000  Level Gander Center
11:02AM 58.6833 -41.9333 256° West 450 518 34,000  Level Gander Center
11:03AM 58.6500 -42.1167 251° West 450 518 34,000  Level Gander Center
11:04AM 58.6167 -42.3333 254° West 450 518 34,000  Level Gander Center
11:05AM 58.5833 -42.5833 256° West 450 518 34,000  Level Gander Center
11:06AM 58.5333 -42.8000 246° West 450 518 34,000  Level Gander Center
11:07AM 58.4833 -43.0167 246° West 450 518 34,000  Level Gander Center
11:08AM 58.4500 -43.2333 254° West 450 518 34,000  Level Gander Center
11:09AM 58.4167 -43.4833 256° West 450 518 34,000  Level Gander Center
11:10AM 58.3833 -43.7000 254° West 450 518 34,000  Level Gander Center
11:11AM 58.3333 -43.9167 246° West 450 518 34,000  Level Gander Center
11:12AM 58.2833 -44.1333 246° West 450 518 34,000  Level Gander Center
11:13AM 58.2333 -44.3500 246° West 450 518 34,000  Level Gander Center
11:14AM 58.2000 -44.5833 255° West 450 518 34,000  Level Gander Center
11:15AM 58.1667 -44.8000 254° West 450 518 34,000  Level Gander Center
11:16AM 58.1167 -45.0167 246° West 450 518 34,000  Level Gander Center
11:17AM 58.0667 -45.2333 247° West 450 518 34,000  Level Gander Center
11:18AM 58.0167 -45.4500 247° West 450 518 34,000  Level Gander Center
11:19AM 57.9833 -45.6833 255° West 450 518 34,000  Level Gander Center
11:20AM 57.9333 -45.9000 247° West 450 518 34,000  Level Gander Center
11:21AM 57.9000 -46.1000 253° West 450 518 34,000  Level Gander Center
11:22AM 57.8500 -46.3167 247° West 450 518 34,000  Level Gander Center
11:23AM 57.8000 -46.5333 247° West 450 518 34,000  Level Gander Center
11:24AM 57.7500 -46.7667 248° West 450 518 34,000  Level Gander Center
11:25AM 57.7167 -46.9833 254° West 450 518 34,000  Level Gander Center
11:26AM 57.6667 -47.1833 245° Southwest 450 518 34,000  Level Gander Center
11:27AM 57.6167 -47.3833 245° Southwest 450 518 34,000  Level Gander Center
11:28AM 57.5667 -47.6000 247° West 450 518 34,000  Level Gander Center
11:29AM 57.5333 -47.8000 253° West 450 518 34,000  Level Gander Center
11:30AM 57.4667 -48.0500 244° Southwest 450 518 34,000  Level Gander Center
11:31AM 57.4167 -48.2500 245° Southwest 450 518 34,000  Level Gander Center
11:32AM 57.3667 -48.4500 245° Southwest 450 518 34,000  Level Gander Center
11:33AM 57.3333 -48.6500 253° West 450 518 34,000  Level Gander Center
11:34AM 57.2833 -48.8833 248° West 450 518 34,000  Level Gander Center
11:35AM 57.2167 -49.1000 240° Southwest 450 518 34,000  Level Gander Center
11:36AM 57.1667 -49.3000 245° Southwest 450 518 34,000  Level Gander Center
11:37AM 57.1167 -49.5000 245° Southwest 450 518 34,000  Level Gander Center
11:38AM 57.0667 -49.7333 249° West 450 518 34,000  Level Gander Center
11:39AM 57.0000 -49.9333 239° Southwest 450 518 34,000  Level Gander Center
11:40AM 57.0000 -50.0000 252° West 454 522 34,000  Level ETMS Enhanced Traffic Management System
11:40AM 56.9833 -50.1667 263° West 450 518 34,000  Level Gander Center
11:41AM 56.9500 -50.3667 252° West 450 518 34,000  Level Gander Center
11:43AM 56.8570 -50.7708 247° West  Level FlightAware Approximate
11:50AM 56.5242 -52.1580 247° West  Level FlightAware Approximate
11:51AM 56.4754 -52.3542 246° West  Level FlightAware Approximate
11:52AM 56.4263 -52.5499 246° West  Level FlightAware Approximate
11:53AM 56.3769 -52.7450 245° Southwest  Level FlightAware Approximate
11:54AM 56.3271 -52.9396 245° Southwest  Level FlightAware Approximate
11:54AM 56.4167 -53.0833 245° Southwest 420 483 34,000  Level Gander Center
11:55AM 56.2771 -53.1338 245° Southwest  Level FlightAware Approximate
11:55AM 56.3667 -53.2833 246° West 420 483 34,000  Level Gander Center
11:56AM 56.2268 -53.3274 245° Southwest  Level FlightAware Approximate
11:56AM 56.3333 -53.4667 252° West 420 483 34,000  Level Gander Center
11:57AM 56.1762 -53.5205 245° Southwest  Level FlightAware Approximate
11:57AM 56.3000 -53.6667 253° West 420 483 34,000  Level Gander Center
11:58AM 56.1253 -53.7131 245° Southwest  Level FlightAware Approximate
11:58AM 56.2500 -53.8833 248° West 420 483 34,000  Level Gander Center
11:59AM 56.0740 -53.9052 245° Southwest  Level FlightAware Approximate
11:59AM 56.2167 -54.0667 252° West 420 483 34,000  Level Gander Center
12:00PM 56.1667 -54.2667 246° West 420 483 34,000  Level Gander Center
12:01PM 56.1167 -54.4500 244° Southwest 420 483 34,000  Level Gander Center
12:02PM 56.0833 -54.6667 255° West 420 483 34,000  Level Gander Center
12:03PM 56.0333 -54.8500 244° Southwest 430 495 34,000  Level Gander Center
12:04PM 56.0000 -55.0333 252° West 430 495 34,000  Level Gander Center
12:05PM 55.9500 -55.2500 248° West 430 495 34,000  Level Gander Center
12:07PM 55.8269 -55.5654 235° Southwest  Level FlightAware Approximate
12:08PM 55.8167 -55.8333 235° Southwest 450 518 34,000  Level Moncton Center
12:09PM 55.7500 -56.0500 241° Southwest 450 518 34,000  Level Moncton Center
12:10PM 55.6833 -56.2500 239° Southwest 470 541 34,000  Level Moncton Center
12:11PM 55.6000 -56.3833 222° Southwest 460 529 34,000  Level Moncton Center
12:12PM 55.5167 -56.5833 234° Southwest 460 529 34,000  Level Moncton Center
12:13PM 55.4500 -56.7667 237° Southwest 450 518 34,000  Level Gander Center
12:14PM 55.3833 -56.9667 240° Southwest 450 518 34,000 60 Level Gander Center
12:15PM 55.3000 -57.1167 226° Southwest 450 518 34,200 900 Climbing Gander Center
12:16PM 55.2333 -57.2833 235° Southwest 440 506 35,800 900 Climbing Moncton Center
12:17PM 55.1333 -57.4333 221° Southwest 450 518 36,000 60 Climbing Moncton Center
12:18PM 55.0833 -57.6333 246° West 450 518 36,000  Level Moncton Center
12:19PM 54.9833 -57.8167 226° Southwest 450 518 36,000  Level Moncton Center
12:20PM 54.9167 -57.9667 232° Southwest 450 518 36,000  Level Gander Center
12:21PM 54.8333 -58.1500 232° Southwest 440 506 36,000  Level Gander Center
12:22PM 54.7667 -58.3000 232° Southwest 450 518 36,000  Level Gander Center
12:23PM 54.6833 -58.4667 229° Southwest 440 506 36,000  Level Moncton Center
12:24PM 54.6000 -58.6500 232° Southwest 440 506 36,000  Level Gander Center
12:25PM 54.5167 -58.8000 226° Southwest 440 506 36,000  Level Gander Center
12:26PM 54.4500 -58.9667 236° Southwest 440 506 36,000  Level Moncton Center
12:27PM 54.3667 -59.1333 229° Southwest 440 506 36,000  Level Gander Center
12:28PM 54.3000 -59.3000 236° Southwest 440 506 36,000  Level Gander Center
12:29PM 54.2333 -59.4500 233° Southwest 440 506 36,000  Level Moncton Center
12:30PM 54.1500 -59.6000 227° Southwest 440 506 36,000  Level Moncton Center
12:31PM 54.0500 -59.7667 224° Southwest 450 518 36,000  Level Gander Center
12:32PM 53.9667 -59.9500 232° Southwest 450 518 36,000  Level Gander Center
12:33PM 53.9167 -60.1167 243° Southwest 450 518 36,000  Level Gander Center
12:34PM 53.8167 -60.2833 225° Southwest 450 518 36,000  Level Gander Center
12:35PM 53.7500 -60.4333 233° Southwest 450 518 36,000  Level Gander Center
12:36PM 53.6667 -60.6000 230° Southwest 450 518 36,000  Level Gander Center
12:37PM 53.5833 -60.7500 227° Southwest 450 518 36,000  Level Gander Center
12:38PM 53.5000 -60.9167 230° Southwest 440 506 36,000  Level Gander Center
12:39PM 53.4167 -61.0500 224° Southwest 440 506 36,000  Level Gander Center
12:40PM 53.3333 -61.2333 233° Southwest 440 506 36,000  Level Gander Center
12:41PM 53.2500 -61.3667 224° Southwest 440 506 36,000  Level Gander Center
12:42PM 53.1667 -61.5333 230° Southwest 440 506 36,000  Level Gander Center
12:43PM 53.1000 -61.7000 236° Southwest 440 506 36,000  Level Gander Center
12:44PM 53.0167 -61.8333 224° Southwest 440 506 36,000  Level Gander Center
12:45PM 52.9333 -61.9833 227° Southwest 440 506 36,000  Level Moncton Center
12:46PM 52.8500 -62.1333 227° Southwest 440 506 36,000  Level Moncton Center
12:47PM 52.7667 -62.3000 230° Southwest 440 506 36,000  Level Moncton Center
12:48PM 52.6833 -62.4333 224° Southwest 440 506 36,000  Level Moncton Center
12:49PM 52.6000 -62.6000 231° Southwest 430 495 36,000  Level Gander Center
12:50PM 52.5333 -62.7500 234° Southwest 440 506 36,000  Level Moncton Center
12:51PM 52.4500 -62.8833 224° Southwest 440 506 36,000  Level Moncton Center
12:52PM 52.3667 -63.0333 228° Southwest 440 506 36,000  Level Moncton Center
12:53PM 52.2833 -63.1667 224° Southwest 430 495 36,000  Level Moncton Center
12:54PM 52.2000 -63.3333 231° Southwest 430 495 36,000  Level Moncton Center
12:55PM 52.1167 -63.4667 225° Southwest 430 495 36,000  Level Moncton Center
12:56PM 52.0333 -63.6167 228° Southwest 430 495 36,000  Level Moncton Center
12:57PM 51.9500 -63.7500 225° Southwest 440 506 36,000  Level Moncton Center
12:58PM 51.8667 -63.8833 225° Southwest 450 518 36,000  Level Moncton Center
12:59PM 51.7833 -64.0500 231° Southwest 430 495 36,000  Level Moncton Center
01:00PM 51.7000 -64.1833 225° Southwest 430 495 36,000  Level Moncton Center
01:01PM 51.6167 -64.3333 228° Southwest 440 506 36,000  Level Gander Center
01:02PM 51.5333 -64.4500 221° Southwest 430 495 36,000  Level Gander Center
01:03PM 51.4667 -64.5833 231° Southwest 430 495 36,000  Level Gander Center
01:04PM 51.3667 -64.7333 223° Southwest 420 483 36,000  Level Gander Center
01:05PM 51.3000 -64.9000 237° Southwest 420 483 36,000  Level Gander Center
01:06PM 51.2167 -65.0000 217° Southwest 420 483 36,000  Level Gander Center
01:07PM 51.1333 -65.1167 221° Southwest 420 483 36,000  Level Gander Center
01:08PM 51.0667 -65.2500 232° Southwest 420 483 36,000  Level Moncton Center
01:09PM 50.9667 -65.4000 223° Southwest 420 483 36,000  Level Moncton Center
01:10PM 50.8833 -65.5333 225° Southwest 420 483 36,000  Level Moncton Center
01:11PM 50.8000 -65.6667 225° Southwest 420 483 36,000  Level Moncton Center
01:12PM 50.7167 -65.7667 217° Southwest 410 472 36,000  Level Moncton Center
01:13PM 50.6500 -65.9000 232° Southwest 410 472 36,000  Level Moncton Center
01:14PM 50.5667 -66.0500 229° Southwest 410 472 36,000  Level Moncton Center
01:15PM 50.4833 -66.1667 222° Southwest 410 472 36,000  Level Moncton Center
01:16PM 50.4000 -66.2833 222° Southwest 410 472 36,000  Level Moncton Center
01:17PM 50.3333 -66.4167 232° Southwest 410 472 36,000  Level Moncton Center
01:18PM 50.2333 -66.5500 220° Southwest 400 460 36,000  Level Moncton Center
01:19PM 50.1667 -66.6500 224° Southwest 400 460 36,000  Level Moncton Center
01:19PM 50.1000 -66.7500 224° Southwest 400 460 36,000  Level Montreal Center
01:20PM 50.0333 -66.8667 228° Southwest 400 460 36,000  Level Montreal Center
01:21PM 49.9333 -66.9833 217° Southwest 400 460 36,000  Level Montreal Center
01:22PM 49.8667 -67.1000 228° Southwest 400 460 36,000  Level Montreal Center
01:23PM 49.7667 -67.2333 221° Southwest 400 460 36,000  Level Montreal Center
01:24PM 49.7000 -67.3500 229° Southwest 400 460 36,000  Level Montreal Center
01:25PM 49.6167 -67.4667 222° Southwest 400 460 36,000  Level Montreal Center
01:26PM 49.5333 -67.5833 222° Southwest 410 472 36,000  Level Montreal Center
01:27PM 49.4500 -67.7000 222° Southwest 410 472 36,000  Level Montreal Center
01:28PM 49.3667 -67.8167 222° Southwest 410 472 36,000  Level Montreal Center
01:29PM 49.2833 -67.9333 222° Southwest 410 472 36,000  Level Montreal Center
01:30PM 49.2167 -68.0833 236° Southwest 410 472 36,000  Level Montreal Center
01:31PM 49.1167 -68.2000 217° Southwest 410 472 36,000  Level Montreal Center
01:32PM 49.0333 -68.3167 223° Southwest 410 472 36,000  Level Montreal Center
01:33PM 48.9667 -68.4333 229° Southwest 410 472 36,000  Level Montreal Center
01:34PM 48.8667 -68.5667 221° Southwest 410 472 36,000  Level Montreal Center
01:35PM 48.8000 -68.6667 225° Southwest 410 472 36,000  Level Montreal Center
01:36PM 48.7000 -68.8000 221° Southwest 410 472 36,000  Level Montreal Center
01:42PM 48.2730 -69.4490 221° Southwest 409 471 36,000  Level FlightAware
01:43PM 48.2340 -69.5030 223° Southwest 409 471 36,000  Level FlightAware
01:43PM 48.1680 -69.5950 223° Southwest 410 472 36,000  Level FlightAware
01:44PM 48.0890 -69.7040 223° Southwest 411 473 36,000  Level FlightAware
01:45PM 48.0250 -69.7910 222° Southwest 409 471 36,000  Level FlightAware
01:45PM 47.9710 -69.8660 223° Southwest 410 472 36,000  Level FlightAware
01:46PM 47.9240 -69.9300 222° Southwest 409 471 36,000  Level FlightAware
01:47PM 47.8740 -69.9980 222° Southwest 407 468 36,000  Level FlightAware
01:47PM 47.8290 -70.0590 222° Southwest 406 467 36,000  Level FlightAware
01:48PM 47.7910 -70.1110 223° Southwest 404 465 36,000  Level FlightAware
01:48PM 47.7320 -70.1910 222° Southwest 402 463 36,000  Level FlightAware
01:49PM 47.6860 -70.2530 222° Southwest 401 461 36,000  Level FlightAware
01:50PM 47.6280 -70.3300 222° Southwest 400 460 36,000  Level FlightAware
01:50PM 47.5850 -70.3880 222° Southwest 400 460 36,000  Level FlightAware
01:51PM 47.5210 -70.4740 222° Southwest 398 458 36,000  Level FlightAware
01:51PM 47.4740 -70.5360 222° Southwest 397 457 36,000  Level FlightAware
01:52PM 47.4240 -70.6030 222° Southwest 397 457 36,000  Level FlightAware
01:53PM 47.3760 -70.6660 222° Southwest 397 457 36,000  Level FlightAware
01:53PM 47.3270 -70.7310 222° Southwest 398 458 36,000  Level FlightAware
01:54PM 47.2740 -70.8010 222° Southwest 399 459 36,000  Level FlightAware
01:55PM 47.2180 -70.8750 222° Southwest 401 461 36,000  Level FlightAware
01:55PM 47.1760 -70.9300 222° Southwest 402 463 36,000  Level FlightAware
01:56PM 47.1320 -70.9870 221° Southwest 402 463 36,000  Level FlightAware
01:56PM 47.0790 -71.0570 222° Southwest 401 461 36,000  Level FlightAware
01:57PM 47.0340 -71.1150 221° Southwest 400 460 36,000  Level FlightAware
01:57PM 46.9790 -71.1870 222° Southwest 400 460 36,000  Level FlightAware
01:58PM 46.9350 -71.2440 222° Southwest 401 461 36,000  Level FlightAware
01:59PM 46.8850 -71.3080 221° Southwest 401 461 36,000  Level FlightAware
01:59PM 46.8390 -71.3680 222° Southwest 400 460 36,000 -180 Level FlightAware
02:00PM 46.7900 -71.4300 221° Southwest 398 458 35,800 -540 Descending FlightAware
02:00PM 46.7420 -71.4920 222° Southwest 390 449 35,400 -960 Descending FlightAware
02:01PM 46.6950 -71.5530 222° Southwest 391 450 34,700 -960 Descending FlightAware
02:01PM 46.6520 -71.6080 221° Southwest 387 445 34,300 -1,020 Descending FlightAware
02:02PM 46.5990 -71.6740 221° Southwest 388 447 33,600 -1,200 Descending FlightAware
02:03PM 46.5540 -71.7310 221° Southwest 390 449 32,900 -1,200 Descending FlightAware
02:03PM 46.4990 -71.8030 222° Southwest 392 451 32,100 -1,140 Descending FlightAware
02:04PM 46.4590 -71.8550 222° Southwest 392 451 31,600 -1,020 Descending FlightAware
02:04PM 46.4120 -71.9160 222° Southwest 394 453 31,000 -1,020 Descending FlightAware
02:05PM 46.3660 -71.9750 222° Southwest 395 455 30,400 -1,200 Descending FlightAware
02:06PM 46.3160 -72.0400 222° Southwest 391 450 29,600 -1,320 Descending FlightAware
02:06PM 46.2700 -72.0980 221° Southwest 394 453 28,900 -1,260 Descending FlightAware
02:07PM 46.2230 -72.1590 222° Southwest 382 440 28,200 -1,260 Descending FlightAware
02:07PM 46.1670 -72.2300 221° Southwest 383 441 27,400 -1,860 Descending FlightAware
02:08PM 46.1270 -72.2800 221° Southwest 378 435 26,000 -1,920 Descending FlightAware
02:09PM 46.0770 -72.3440 222° Southwest 357 411 25,200 -1,320 Descending FlightAware
02:09PM 46.0370 -72.3960 222° Southwest 340 391 24,400 -1,680 Descending FlightAware
02:10PM 46.0050 -72.4360 221° Southwest 330 380 23,400 -3,000 Descending FlightAware
02:10PM 45.9570 -72.4960 221° Southwest 322 371 21,000 -3,240 Descending FlightAware
02:11PM 45.9160 -72.5480 221° Southwest 322 371 19,200 -2,220 Descending FlightAware
02:12PM 45.8690 -72.6070 221° Southwest 318 366 18,100 -1,740 Descending FlightAware
02:12PM 45.8170 -72.6730 222° Southwest 311 358 16,700 -1,740 Descending FlightAware
02:13PM 45.7820 -72.7160 221° Southwest 305 351 15,900 -1,680 Descending FlightAware
02:13PM 45.7540 -72.7560 225° Southwest 297 342 15,000 -1,800 Descending FlightAware
02:14PM 45.7440 -72.7850 244° Southwest 293 337 14,600 -1,920 Descending FlightAware
02:14PM 45.7360 -72.8530 260° West 283 326 13,400 -2,580 Descending FlightAware
02:15PM 45.7400 -72.9120 276° West 295 339 11,700 -2,940 Descending FlightAware
02:15PM 45.7470 -72.9580 282° West 290 334 10,700 -2,220 Descending FlightAware
02:16PM 45.7420 -72.9980 260° West 273 314 10,000 -1,740 Descending FlightAware
02:16PM 45.7360 -73.0260 253° West 272 313 9,600 -1,320 Descending FlightAware
02:16PM 45.7270 -73.0710 254° West 267 307 9,100 -1,260 Descending FlightAware
02:16PM 45.7240 -73.0850 253° West 264 304 8,900 -1,140 Descending FlightAware
02:17PM 45.7170 -73.1240 256° West 259 298 8,500 -1,140 Descending FlightAware
02:17PM 45.7110 -73.1560 255° West 254 292 8,100 -1,200 Descending FlightAware
02:17PM 45.7040 -73.1930 255° West 257 296 7,700 -1,140 Descending FlightAware
02:18PM 45.6990 -73.2180 254° West 257 296 7,400 -1,200 Descending FlightAware
02:18PM 45.6930 -73.2500 255° West 255 293 7,000 -1,320 Descending FlightAware
02:18PM 45.6890 -73.2710 255° West 255 293 6,700 -1,380 Descending FlightAware
02:19PM 45.6820 -73.3100 256° West 254 292 6,200 -1,380 Descending FlightAware
02:19PM 45.6750 -73.3420 253° West 253 291 5,700 -1,500 Descending FlightAware
02:19PM 45.6720 -73.3610 257° West 251 289 5,400 -1,500 Descending FlightAware
02:20PM 45.6640 -73.4000 254° West 250 288 4,800 -1,200 Descending FlightAware
02:20PM 45.6580 -73.4350 256° West 243 280 4,500 -780 Descending FlightAware
02:20PM 45.6520 -73.4640 254° West 234 269 4,300 -600 Descending FlightAware
02:20PM 45.6490 -73.4820 257° West 227 261 4,200 -600 Descending FlightAware
02:21PM 45.6430 -73.5110 254° West 216 249 4,000 -840 Descending FlightAware
02:21PM 45.6370 -73.5300 246° West 215 247 3,700 -1,020 Descending FlightAware
02:21PM 45.6320 -73.5390 232° Southwest 216 249 3,600 -900 Descending FlightAware
02:21PM 45.6240 -73.5510 226° Southwest 214 246 3,400 -900 Descending FlightAware
02:22PM 45.6080 -73.5720 223° Southwest 203 234 3,100 -720 Descending FlightAware
02:22PM 45.5950 -73.5900 224° Southwest 193 222 2,900 -720 Descending FlightAware
02:22PM 45.5810 -73.6080 222° Southwest 186 214 2,600 -1,020 Descending FlightAware
02:23PM 45.5680 -73.6240 221° Southwest 180 207 2,200 -1,080 Descending FlightAware
02:23PM 45.5570 -73.6400 226° Southwest 163 188 1,900 -840 Descending FlightAware
02:23PM 45.5490 -73.6500 221° Southwest 150 173 1,700 -660 Descending FlightAware
02:24PM 45.5390 -73.6620 220° Southwest 147 169 1,500 -780 Descending FlightAware
02:24PM 45.5280 -73.6780 226° Southwest 151 174 1,200 -900 Descending FlightAware
02:24PM 45.5170 -73.6910 220° Southwest 138 159 900 -720 Descending FlightAware
02:25PM 45.5100 -73.7010 225° Southwest 137 158 700 -720 Descending FlightAware
02:25PM 45.5020 -73.7120 224° Southwest 136 157 500 -720 Descending FlightAware
02:25PM 45.4930 -73.7230 221° Southwest 134 154 300 -600 Descending FlightAware
02:26PM 45.4820 -73.7380 224° Southwest 139 160 -900 Descending FlightAware
02:26PM 45.4750 -73.7460 219° Southwest 110 127  Level FlightAware